createdAt,value
2022-09-13T00:01:52.092Z,100474.07
2022-09-13T00:04:24.482Z,100473.91
2022-09-13T00:06:56.611Z,100468.55
2022-09-13T00:09:28.560Z,100473.75
2022-09-13T00:12:00.518Z,100464.15
2022-09-13T00:14:32.762Z,100465.90
2022-09-13T00:17:04.810Z,100465.34
2022-09-13T00:19:37.208Z,100464.62
2022-09-13T00:22:09.472Z,100458.39
2022-09-13T00:24:41.963Z,100457.83
2022-09-13T00:27:14.148Z,100450.70
2022-09-13T00:29:46.351Z,100451.33
2022-09-13T00:32:18.360Z,100453.42
2022-09-13T00:34:50.563Z,100455.34
2022-09-13T00:37:23.191Z,100449.10
2022-09-13T00:39:55.490Z,100445.97
2022-09-13T00:42:29.746Z,100441.73
2022-09-13T00:45:03.517Z,100441.73
2022-09-13T00:47:50.213Z,100445.48
2022-09-13T00:50:26.488Z,100439.00
2022-09-13T00:53:03.952Z,100443.56
2022-09-13T00:55:40.011Z,100437.97
2022-09-13T00:58:18.364Z,100435.48
2022-09-13T01:00:51.498Z,100438.83
2022-09-13T01:03:26.277Z,100436.99
2022-09-13T01:05:59.405Z,100437.31
2022-09-13T01:08:33.595Z,100431.06
2022-09-13T01:11:08.699Z,100428.59
2022-09-13T01:13:42.889Z,100428.90
2022-09-13T01:16:15.119Z,100431.46
2022-09-13T01:18:47.507Z,100434.10
2022-09-13T01:22:03.983Z,100432.02
2022-09-13T01:24:58.191Z,100426.98
2022-09-13T01:27:39.416Z,100423.05
2022-09-13T01:30:18.838Z,100410.15
2022-09-13T01:33:13.088Z,100421.30
2022-09-13T01:35:57.212Z,100417.61
2022-09-13T01:38:47.706Z,100418.25
2022-09-13T01:41:34.678Z,100412.41
2022-09-13T01:44:15.182Z,100412.64
2022-09-13T01:46:54.549Z,100404.73
2022-09-13T01:49:37.075Z,100400.89
2022-09-13T01:52:16.183Z,100396.25
2022-09-13T01:54:55.207Z,100392.41
2022-09-13T01:57:33.916Z,100387.84
2022-09-13T02:00:10.662Z,100386.24
2022-09-13T02:02:50.988Z,100382.89
2022-09-13T02:05:29.279Z,100381.04
2022-09-13T02:08:05.885Z,100374.17
2022-09-13T02:10:43.193Z,100371.92
2022-09-13T02:13:21.627Z,100369.20
2022-09-13T02:16:01.232Z,100362.23
2022-09-13T02:18:37.244Z,100364.05
2022-09-13T02:21:13.959Z,100363.95
2022-09-13T02:23:52.053Z,100336.36
2022-09-13T02:26:26.905Z,100348.04
2022-09-13T02:28:59.683Z,100341.17
2022-09-13T02:31:36.346Z,100339.80
2022-09-13T02:34:13.858Z,100334.92
2022-09-13T02:36:49.781Z,100333.73
2022-09-13T02:39:25.969Z,100336.13
2022-09-13T02:42:03.667Z,100331.63
2022-09-13T02:44:38.113Z,100326.94
2022-09-13T02:47:25.228Z,100329.49
2022-09-13T02:50:09.032Z,100318.13
2022-09-13T02:52:50.674Z,100309.58
2022-09-13T02:55:29.519Z,100303.96
2022-09-13T02:58:08.503Z,100303.58
2022-09-13T03:00:40.872Z,100300.21
2022-09-13T03:03:16.954Z,100297.10
2022-09-13T03:05:49.764Z,100291.26
2022-09-13T03:08:23.451Z,100279.27
2022-09-13T03:11:01.841Z,100296.45
2022-09-13T03:14:02.943Z,100290.77
2022-09-13T03:16:57.123Z,100285.83
2022-09-13T03:19:49.640Z,100283.49
2022-09-13T03:22:45.698Z,100281.73
2022-09-13T03:25:28.573Z,100268.05
2022-09-13T03:28:11.270Z,100277.42
2022-09-13T03:30:49.792Z,100277.34
2022-09-13T03:33:30.455Z,100244.77
2022-09-13T03:36:13.031Z,100272.38
2022-09-13T03:38:54.962Z,100269.65
2022-09-13T03:41:33.426Z,100268.70
2022-09-13T03:44:11.432Z,100263.02
2022-09-13T03:46:46.879Z,100256.23
2022-09-13T03:49:20.683Z,100254.38
2022-09-13T03:51:53.971Z,100257.42
2022-09-13T03:54:28.338Z,100253.49
2022-09-13T03:57:16.405Z,100245.74
2022-09-13T03:59:51.033Z,100245.90
2022-09-13T04:02:25.272Z,100250.78
2022-09-13T04:04:57.687Z,100255.16
2022-09-13T04:07:30.310Z,100257.64
2022-09-13T04:10:02.172Z,100263.88
2022-09-13T04:12:34.651Z,100268.60
2022-09-13T04:15:08.235Z,100269.45
2022-09-13T04:17:40.381Z,100266.73
2022-09-13T04:20:12.561Z,100267.63
2022-09-13T04:22:45.586Z,100263.08
2022-09-13T04:25:18.388Z,100258.98
2022-09-13T04:27:50.606Z,100256.17
2022-09-13T04:30:23.435Z,100258.02
2022-09-13T04:32:58.774Z,100258.58
2022-09-13T04:35:31.311Z,100257.87
2022-09-13T04:38:03.864Z,100257.95
2022-09-13T04:40:37.376Z,100259.30
2022-09-13T04:43:11.020Z,100248.13
2022-09-13T04:45:44.387Z,100241.89
2022-09-13T04:48:17.182Z,100240.92
2022-09-13T04:50:50.197Z,100243.48
2022-09-13T04:53:22.817Z,100245.73
2022-09-13T04:55:55.196Z,100242.30
2022-09-13T04:58:27.229Z,100238.45
2022-09-13T05:01:03.701Z,100233.34
2022-09-13T05:03:37.208Z,100220.39
2022-09-13T05:06:11.866Z,100228.80
2022-09-13T05:08:44.568Z,100226.70
2022-09-13T05:11:16.677Z,100226.31
2022-09-13T05:13:54.778Z,100221.44
2022-09-13T05:16:28.769Z,100228.79
2022-09-13T05:19:01.673Z,100228.23
2022-09-13T05:21:34.165Z,100223.59
2022-09-13T05:24:06.630Z,100220.32
2022-09-13T05:26:39.710Z,100213.85
2022-09-13T05:29:11.822Z,100211.69
2022-09-13T05:31:45.735Z,100206.59
2022-09-13T05:34:19.759Z,100200.75
2022-09-13T05:36:54.430Z,100198.83
2022-09-13T05:39:33.867Z,100200.34
2022-09-13T05:42:16.340Z,100192.67
2022-09-13T05:44:48.878Z,100190.04
2022-09-13T05:47:21.011Z,100191.88
2022-09-13T05:50:09.952Z,100188.84
2022-09-13T05:52:42.932Z,100187.39
2022-09-13T05:55:17.424Z,100180.59
2022-09-13T05:57:50.568Z,100173.56
2022-09-13T06:00:22.949Z,100170.20
2022-09-13T06:02:55.105Z,100167.39
2022-09-13T06:05:31.656Z,100168.44
2022-09-13T06:08:04.693Z,100164.11
2022-09-13T06:10:36.810Z,100169.45
2022-09-13T06:13:08.865Z,100169.90
2022-09-13T06:15:43.351Z,100174.13
2022-09-13T06:18:14.055Z,100172.97
2022-09-13T06:20:46.412Z,100165.52
2022-09-13T06:23:18.875Z,100152.23
2022-09-13T06:25:51.427Z,100160.75
2022-09-13T06:28:23.374Z,100159.95
2022-09-13T06:31:00.401Z,100163.27
2022-09-13T06:33:33.895Z,100163.36
2022-09-13T06:36:08.298Z,100159.52
2022-09-13T06:38:39.895Z,100155.25
2022-09-13T06:41:13.602Z,100159.68
2022-09-13T06:43:45.671Z,100161.95
2022-09-13T06:46:24.572Z,100152.77
2022-09-13T06:49:00.160Z,100149.55
2022-09-13T06:51:32.932Z,100148.00
2022-09-13T06:54:05.750Z,100143.27
2022-09-13T06:56:39.363Z,100136.58
2022-09-13T06:59:12.975Z,100133.34
2022-09-13T07:01:46.203Z,100134.91
2022-09-13T07:04:21.042Z,100133.73
2022-09-13T07:06:51.781Z,100131.95
2022-09-13T07:09:24.736Z,100133.64
2022-09-13T07:11:58.148Z,100134.13
2022-09-13T07:14:31.626Z,100133.41
2022-09-13T07:17:04.813Z,100131.14
2022-09-13T07:19:37.253Z,100131.95
2022-09-13T07:22:09.533Z,100130.34
2022-09-13T07:24:41.515Z,100126.36
2022-09-13T07:27:15.241Z,100121.84
2022-09-13T07:29:47.675Z,100127.89
2022-09-13T07:32:20.173Z,100121.44
2022-09-13T07:34:52.773Z,100125.89
2022-09-13T07:37:25.079Z,100120.69
2022-09-13T07:39:57.642Z,100119.66
2022-09-13T07:42:29.956Z,100121.45
2022-09-13T07:45:02.293Z,100116.02
2022-09-13T07:47:36.516Z,100113.02
2022-09-13T07:50:09.746Z,100111.84
2022-09-13T07:52:42.321Z,100114.84
2022-09-13T07:55:14.592Z,100111.50
2022-09-13T07:57:46.772Z,100112.03
2022-09-13T08:00:19.280Z,100112.34
2022-09-13T08:02:51.750Z,100101.95
2022-09-13T08:05:23.751Z,100102.13
2022-09-13T08:07:56.026Z,100098.91
2022-09-13T08:10:28.301Z,100101.86
2022-09-13T08:13:00.551Z,100102.89
2022-09-13T08:15:32.655Z,100106.36
2022-09-13T08:18:06.709Z,100104.98
2022-09-13T08:20:40.657Z,100102.09
2022-09-13T08:23:14.737Z,100109.47
2022-09-13T08:25:46.895Z,100108.19
2022-09-13T08:28:26.883Z,100099.03
2022-09-13T08:31:06.303Z,100098.48
2022-09-13T08:33:44.190Z,100094.05
2022-09-13T08:36:20.063Z,100090.98
2022-09-13T08:38:54.394Z,100093.58
2022-09-13T08:41:49.048Z,100092.95
2022-09-13T08:44:27.350Z,100082.44
2022-09-13T08:47:15.126Z,100077.58
2022-09-13T08:49:51.459Z,100079.35
2022-09-13T08:52:34.209Z,100077.48
2022-09-13T08:55:22.665Z,100074.36
2022-09-13T08:58:02.274Z,100066.49
2022-09-13T09:00:38.712Z,100061.94
2022-09-13T09:03:30.353Z,100055.80
2022-09-13T09:06:02.614Z,100051.07
2022-09-13T09:08:40.370Z,100046.37
2022-09-13T09:11:20.401Z,100037.31
2022-09-13T09:13:57.638Z,100021.36
2022-09-13T09:16:38.914Z,100030.98
2022-09-13T09:19:21.186Z,100038.84
2022-09-13T09:21:54.311Z,100040.59
2022-09-13T09:24:27.396Z,100045.78
2022-09-13T09:27:15.747Z,100040.86
2022-09-13T09:29:50.684Z,100025.48
2022-09-13T09:32:29.859Z,100036.54
2022-09-13T09:35:18.931Z,100032.40
2022-09-13T09:38:07.126Z,100030.34
2022-09-13T09:40:40.108Z,100027.61
2022-09-13T09:43:21.709Z,100026.45
2022-09-13T09:45:57.389Z,100025.08
2022-09-13T09:48:36.944Z,100026.77
2022-09-13T09:51:13.331Z,100031.56
2022-09-13T09:53:50.488Z,100038.98
2022-09-13T09:56:30.122Z,100033.04
2022-09-13T09:59:03.562Z,100032.39
2022-09-13T10:01:40.281Z,100022.70
2022-09-13T10:04:22.828Z,100020.69
2022-09-13T10:07:24.664Z,100024.41
2022-09-13T10:10:06.380Z,100021.31
2022-09-13T10:12:41.108Z,100022.67
2022-09-13T10:15:20.748Z,100003.99
2022-09-13T10:18:39.969Z,100016.79
2022-09-13T10:21:11.487Z,100010.59
2022-09-13T10:23:43.511Z,100022.55
2022-09-13T10:26:19.232Z,100020.54
2022-09-13T10:28:57.936Z,100016.68
2022-09-13T10:31:35.683Z,100019.98
2022-09-13T10:34:14.284Z,100019.95
2022-09-13T10:36:55.598Z,100013.42
2022-09-13T10:39:30.374Z,100002.51
2022-09-13T10:42:05.069Z,100014.86
2022-09-13T10:44:42.454Z,100010.37
2022-09-13T10:47:21.193Z,100003.35
2022-09-13T10:49:55.631Z,100007.08
2022-09-13T10:52:31.183Z,100001.65
2022-09-13T10:55:31.354Z,100001.93
2022-09-13T10:58:20.550Z,99990.20
2022-09-13T11:01:42.220Z,99985.19
2022-09-13T11:04:46.375Z,99984.63
2022-09-13T11:07:42.281Z,99980.73
2022-09-13T11:10:20.613Z,99970.98
2022-09-13T11:12:59.980Z,99973.03
2022-09-13T11:15:48.425Z,99973.73
2022-09-13T11:18:55.774Z,99966.77
2022-09-13T11:21:40.817Z,99957.20
2022-09-13T11:24:40.383Z,99946.98
2022-09-13T11:27:24.994Z,99939.55
2022-09-13T11:30:10.268Z,99933.54
2022-09-13T11:32:58.974Z,99937.80
2022-09-13T11:35:48.367Z,99934.15
2022-09-13T11:38:35.334Z,99940.99
2022-09-13T11:41:20.994Z,99946.30
2022-09-13T11:44:13.688Z,99940.80
2022-09-13T11:46:53.797Z,99938.95
2022-09-13T11:49:39.128Z,99938.17
2022-09-13T11:52:24.459Z,99939.18
2022-09-13T11:55:05.473Z,99939.36
2022-09-13T11:57:42.760Z,99936.00
2022-09-13T12:00:23.816Z,99919.48
2022-09-13T12:03:04.770Z,99931.55
2022-09-13T12:05:42.671Z,99930.27
2022-09-13T12:08:19.511Z,99923.96
2022-09-13T12:10:55.911Z,99917.49
2022-09-13T12:13:31.387Z,99909.10
2022-09-13T12:16:07.852Z,99903.72
2022-09-13T12:18:43.982Z,99901.30
2022-09-13T12:21:19.520Z,99892.34
2022-09-13T12:23:57.679Z,99884.42
2022-09-13T12:26:36.936Z,99898.02
2022-09-13T12:29:15.873Z,99890.11
2022-09-13T12:31:49.173Z,99891.64
2022-09-13T12:34:26.615Z,99887.71
2022-09-13T12:37:22.028Z,99887.34
2022-09-13T12:40:18.722Z,99889.85
2022-09-13T12:43:27.422Z,99890.27
2022-09-13T12:46:16.162Z,99880.80
2022-09-13T12:49:18.629Z,99876.58
2022-09-13T12:52:05.853Z,99867.67
2022-09-13T12:55:45.395Z,99867.58
2022-09-13T12:58:35.970Z,99855.92
2022-09-13T13:01:15.767Z,99862.36
2022-09-13T13:03:54.662Z,99856.81
2022-09-13T13:06:35.290Z,99854.58
2022-09-13T13:09:28.461Z,99848.61
2022-09-13T13:12:02.340Z,99845.66
2022-09-13T13:14:53.733Z,99835.11
2022-09-13T13:17:48.054Z,99834.23
2022-09-13T13:20:47.105Z,99832.21
2022-09-13T13:23:28.313Z,99828.23
2022-09-13T13:26:10.650Z,99830.72
2022-09-13T13:29:15.590Z,99824.48
2022-09-13T13:32:05.013Z,99827.94
2022-09-13T13:34:44.579Z,99828.10
2022-09-13T13:37:45.872Z,99822.38
2022-09-13T13:40:29.289Z,99825.80
2022-09-13T13:43:35.044Z,99826.80
2022-09-13T13:46:30.953Z,99818.70
2022-09-13T13:49:33.764Z,99819.17
2022-09-13T13:52:36.124Z,99811.73
2022-09-13T13:55:49.683Z,99813.08
2022-09-13T13:58:43.727Z,99808.94
2022-09-13T14:01:19.486Z,99808.98
2022-09-13T14:04:18.727Z,99808.00
2022-09-13T14:07:06.468Z,99810.77
2022-09-13T14:09:58.806Z,99802.16
2022-09-13T14:12:42.290Z,99808.66
2022-09-13T14:15:40.729Z,99801.02
2022-09-13T14:18:40.373Z,99789.02
2022-09-13T14:21:23.650Z,99790.57
2022-09-13T14:24:16.635Z,99793.69
2022-09-13T14:26:50.041Z,99794.06
2022-09-13T14:29:25.316Z,99792.77
2022-09-13T14:32:04.653Z,99790.02
2022-09-13T14:34:39.253Z,99790.33
2022-09-13T14:37:18.415Z,99783.69
2022-09-13T14:40:00.548Z,99781.77
2022-09-13T14:42:43.362Z,99775.75
2022-09-13T14:45:18.338Z,99771.77
2022-09-13T14:47:58.656Z,99759.34
2022-09-13T14:50:34.863Z,99766.20
2022-09-13T14:53:13.199Z,99763.65
2022-09-13T14:55:51.789Z,99753.26
2022-09-13T14:58:27.631Z,99763.20
2022-09-13T15:01:04.601Z,99766.58
2022-09-13T15:03:37.541Z,99761.38
2022-09-13T15:06:21.321Z,99765.44
2022-09-13T15:08:55.057Z,99767.57
2022-09-13T15:11:35.914Z,99761.93
2022-09-13T15:14:25.616Z,99754.14
2022-09-13T15:17:07.409Z,99756.52
2022-09-13T15:19:42.022Z,99750.86
2022-09-13T15:22:25.342Z,99752.41
2022-09-13T15:25:01.882Z,99748.58
2022-09-13T15:27:46.349Z,99747.88
2022-09-13T15:30:27.693Z,99754.00
2022-09-13T15:33:21.346Z,99747.05
2022-09-13T15:35:54.964Z,99746.63
2022-09-13T15:38:31.726Z,99745.34
2022-09-13T15:41:19.381Z,99742.97
2022-09-13T15:43:52.128Z,99746.02
2022-09-13T15:46:25.266Z,99746.73
2022-09-13T15:48:59.848Z,99746.05
2022-09-13T15:51:35.542Z,99752.00
2022-09-13T15:54:14.691Z,99759.41
2022-09-13T15:56:51.475Z,99762.04
2022-09-13T15:59:24.489Z,99758.46
2022-09-13T16:01:59.307Z,99758.36
2022-09-13T16:04:32.780Z,99753.81
2022-09-13T16:07:04.855Z,99755.45
2022-09-13T16:09:38.895Z,99753.81
2022-09-13T16:12:11.415Z,99756.34
2022-09-13T16:14:43.544Z,99750.25
2022-09-13T16:17:24.594Z,99750.77
2022-09-13T16:19:56.847Z,99753.11
2022-09-13T16:22:29.137Z,99753.93
2022-09-13T16:25:01.135Z,99746.16
2022-09-13T16:27:34.159Z,99746.45
2022-09-13T16:30:08.145Z,99753.06
2022-09-13T16:32:41.499Z,99752.52
2022-09-13T16:35:15.992Z,99755.10
2022-09-13T16:37:51.533Z,99749.87
2022-09-13T16:40:24.157Z,99754.89
2022-09-13T16:42:56.165Z,99755.81
2022-09-13T16:45:28.219Z,99759.92
2022-09-13T16:48:00.475Z,99758.52
2022-09-13T16:50:34.953Z,99764.09
2022-09-13T16:53:05.868Z,99756.83
2022-09-13T16:55:39.053Z,99771.30
2022-09-13T16:58:11.028Z,99776.66
2022-09-13T17:00:45.436Z,99773.19
2022-09-13T17:03:17.702Z,99772.95
2022-09-13T17:06:00.217Z,99764.08
2022-09-13T17:08:33.286Z,99756.19
2022-09-13T17:11:07.985Z,99752.30
2022-09-13T17:13:38.564Z,99752.13
2022-09-13T17:16:23.937Z,99754.95
2022-09-13T17:18:58.114Z,99756.13
2022-09-13T17:21:31.466Z,99753.60
2022-09-13T17:24:04.210Z,99752.75
2022-09-13T17:26:36.666Z,99744.42
2022-09-13T17:29:08.742Z,99750.30
2022-09-13T17:31:41.244Z,99753.74
2022-09-13T17:34:14.262Z,99754.39
2022-09-13T17:36:50.508Z,99758.97
2022-09-13T17:39:23.854Z,99748.46
2022-09-13T17:41:55.820Z,99755.84
2022-09-13T17:44:28.617Z,99759.54
2022-09-13T17:47:02.200Z,99756.38
2022-09-13T17:49:34.860Z,99756.36
2022-09-13T17:52:08.178Z,99759.19
2022-09-13T17:54:40.285Z,99760.73
2022-09-13T17:57:15.667Z,99749.98
2022-09-13T17:59:48.129Z,99763.83
2022-09-13T18:02:21.748Z,99764.64
2022-09-13T18:04:54.069Z,99765.23
2022-09-13T18:07:26.712Z,99760.63
2022-09-13T18:09:58.900Z,99749.62
2022-09-13T18:12:31.272Z,99752.64
2022-09-13T18:15:04.190Z,99751.73
2022-09-13T18:17:36.181Z,99750.52
2022-09-13T18:20:09.499Z,99751.41
2022-09-13T18:22:42.236Z,99757.64
2022-09-13T18:25:14.205Z,99757.81
2022-09-13T18:27:46.221Z,99752.10
2022-09-13T18:30:18.717Z,99753.10
2022-09-13T18:32:50.722Z,99760.42
2022-09-13T18:35:23.032Z,99749.91
2022-09-13T18:37:55.410Z,99763.61
2022-09-13T18:40:28.111Z,99765.34
2022-09-13T18:43:00.282Z,99768.41
2022-09-13T18:45:32.318Z,99767.64
2022-09-13T18:48:04.521Z,99764.92
2022-09-13T18:50:36.723Z,99772.58
2022-09-13T18:53:08.807Z,99770.84
2022-09-13T18:55:41.013Z,99772.98
2022-09-13T18:58:13.687Z,99769.89
2022-09-13T19:00:46.559Z,99767.46
2022-09-13T19:03:18.768Z,99763.90
2022-09-13T19:05:52.625Z,99756.73
2022-09-13T19:08:25.024Z,99751.88
2022-09-13T19:11:00.886Z,99749.73
2022-09-13T19:13:33.266Z,99754.88
2022-09-13T19:16:07.630Z,99731.95
2022-09-13T19:18:41.674Z,99735.88
2022-09-13T19:21:16.569Z,99747.42
2022-09-13T19:23:58.905Z,99744.80
2022-09-13T19:26:34.699Z,99716.90
2022-09-13T19:29:11.718Z,99739.50
2022-09-13T19:31:47.675Z,99738.55
2022-09-13T19:34:23.021Z,99732.86
2022-09-13T19:36:58.374Z,99734.55
2022-09-13T19:39:31.391Z,99734.22
2022-09-13T19:42:05.502Z,99735.13
2022-09-13T19:44:37.585Z,99736.92
2022-09-13T19:48:02.020Z,99745.94
2022-09-13T19:50:02.566Z,99745.33
2022-09-13T19:52:34.755Z,99746.16
2022-09-13T19:55:07.871Z,99747.35
2022-09-13T19:57:44.826Z,99746.84
2022-09-13T20:00:18.372Z,99748.51
2022-09-13T20:02:51.896Z,99750.69
2022-09-13T20:05:28.048Z,99746.63
2022-09-13T20:08:01.093Z,99744.89
2022-09-13T20:10:34.041Z,99735.61
2022-09-13T20:13:07.434Z,99738.88
2022-09-13T20:15:41.308Z,99744.98
2022-09-13T20:18:15.655Z,99742.20
2022-09-13T20:20:48.835Z,99744.73
2022-09-13T20:23:21.230Z,99743.90
2022-09-13T20:25:53.444Z,99728.38
2022-09-13T20:28:26.209Z,99739.05
2022-09-13T20:31:00.329Z,99738.02
2022-09-13T20:33:33.227Z,99742.86
2022-09-13T20:36:08.431Z,99738.25
2022-09-13T20:38:41.794Z,99735.40
2022-09-13T20:41:18.665Z,99738.41
2022-09-13T20:43:51.530Z,99735.59
2022-09-13T20:46:24.582Z,99728.99
2022-09-13T20:48:57.102Z,99729.27
2022-09-13T20:51:33.945Z,99730.89
2022-09-13T20:54:07.262Z,99721.80
2022-09-13T20:56:39.228Z,99719.58
2022-09-13T20:59:14.793Z,99712.02
2022-09-13T21:01:47.350Z,99713.77
2022-09-13T21:04:19.889Z,99713.48
2022-09-13T21:07:14.304Z,99710.98
2022-09-13T21:09:47.029Z,99711.70
2022-09-13T21:12:19.811Z,99711.14
2022-09-13T21:14:52.265Z,99709.91
2022-09-13T21:17:24.732Z,99710.63
2022-09-13T21:19:56.738Z,99713.09
2022-09-13T21:22:29.317Z,99711.11
2022-09-13T21:25:01.353Z,99713.23
2022-09-13T21:27:33.721Z,99715.41
2022-09-13T21:30:08.413Z,99714.27
2022-09-13T21:32:41.047Z,99716.58
2022-09-13T21:35:13.461Z,99714.70
2022-09-13T21:37:45.453Z,99718.76
2022-09-13T21:40:17.907Z,99720.02
2022-09-13T21:42:50.229Z,99717.42
2022-09-13T21:45:22.434Z,99698.11
2022-09-13T21:47:54.416Z,99716.54
2022-09-13T21:50:26.668Z,99714.37
2022-09-13T21:53:01.839Z,99711.69
2022-09-13T21:55:40.046Z,99709.41
2022-09-13T21:58:12.525Z,99712.02
2022-09-13T22:00:44.467Z,99706.61
2022-09-13T22:03:16.385Z,99706.50
2022-09-13T22:05:55.774Z,99702.68
2022-09-13T22:08:30.243Z,99704.01
2022-09-13T22:11:07.916Z,99704.77
2022-09-13T22:13:45.466Z,99705.66
2022-09-13T22:16:23.351Z,99705.46
2022-09-13T22:18:57.935Z,99688.55
2022-09-13T22:21:32.226Z,99700.54
2022-09-13T22:24:05.958Z,99702.34
2022-09-13T22:26:40.636Z,99701.92
2022-09-13T22:29:13.195Z,99702.84
2022-09-13T22:31:48.240Z,99701.59
2022-09-13T22:34:23.030Z,99703.59
2022-09-13T22:36:55.915Z,99704.95
2022-09-13T22:39:27.940Z,99703.55
2022-09-13T22:42:00.938Z,99704.19
2022-09-13T22:44:33.393Z,99703.63
2022-09-13T22:47:05.537Z,99692.02
2022-09-13T22:49:37.461Z,99705.46
2022-09-13T22:52:09.393Z,99706.73
2022-09-13T22:54:41.451Z,99706.95
2022-09-13T22:57:13.368Z,99710.45
2022-09-13T22:59:45.461Z,99705.76
2022-09-13T23:02:17.485Z,99706.98
2022-09-13T23:04:49.475Z,99701.52
2022-09-13T23:07:21.873Z,99688.08
2022-09-13T23:09:53.823Z,99694.30
2022-09-13T23:12:25.955Z,99691.35
2022-09-13T23:14:58.078Z,99688.05
2022-09-13T23:17:30.106Z,99680.89
2022-09-13T23:20:02.232Z,99683.29
2022-09-13T23:22:34.407Z,99685.35
2022-09-13T23:25:07.316Z,99688.98
2022-09-13T23:27:39.767Z,99687.70
2022-09-13T23:30:13.226Z,99689.12
2022-09-13T23:32:47.700Z,99691.13
2022-09-13T23:35:19.804Z,99692.16
2022-09-13T23:37:52.166Z,99691.98
2022-09-13T23:40:24.222Z,99688.22
2022-09-13T23:42:56.425Z,99685.69
2022-09-13T23:45:29.247Z,99686.70
2022-09-13T23:48:01.363Z,99684.29
2022-09-13T23:50:33.555Z,99687.79
2022-09-13T23:53:05.676Z,99687.78
2022-09-13T23:55:37.643Z,99688.22
2022-09-13T23:58:10.533Z,99691.34
